Terminal Aerodrome Forecast
Issued by NWS

Home | Current Version | Previous Version | Text Only | Print | Product List | Glossary On
Versions: 1 2 3 4 5 6 7 8 9 10 11 12 13 14 15 16 17
000
FTUS43 KABR 202100 AAA
TAFMBG
TAF AMD
KMBG 202101Z 2021/2118 15014KT P6SM BKN100
     FM202300 13009KT P6SM -SHRA VCTS BKN070CB
      TEMPO 2023/2103 5SM SHRA BKN050
     FM210300 14006KT P6SM BKN150
     FM210700 35008KT P6SM SKC=

USA.gov is the U.S. government's official web portal to all federal, state and local government web resources and services.